<?xml version="1.0" encoding="UTF-8" standalone="no" ?>
<gpx xmlns="http://www.topografix.com/GPX/1/1" xmlns:xsi="http://www.w3.org/2001/XMLSchema-instance" xsi:schemaLocation="http://www.topografix.com/GPX/1/1 http://www.topografix.com/GPX/1/1/gpx.xsd" version="1.1" creator="VisuGPX - https://www.visugpx.com">
  <metadata>
    <name>boucles beaumont</name>
    <desc><![CDATA[boucles beaumont du périgord]]></desc>
  </metadata>
  <trk>
    <name><![CDATA[BBmt63]]></name>
    <trkseg>
      <trkpt lat="44.73622" lon="0.82016">
        <ele>127</ele>
        <time>2009-01-20T13:30:54Z</time>
      </trkpt>
      <trkpt lat="44.73603" lon="0.82024">
        <ele>127</ele>
        <time>2009-06-18T16:43:36Z</time>
      </trkpt>
      <trkpt lat="44.73583" lon="0.82031">
        <ele>127</ele>
        <time>2009-06-18T16:43:36Z</time>
      </trkpt>
      <trkpt lat="44.7356" lon="0.82033">
        <ele>128</ele>
        <time>2009-06-18T16:43:36Z</time>
      </trkpt>
      <trkpt lat="44.73539" lon="0.82034">
        <ele>128</ele>
        <time>2009-06-18T16:43:36Z</time>
      </trkpt>
      <trkpt lat="44.73524" lon="0.82034">
        <ele>128</ele>
        <time>2009-06-18T16:43:36Z</time>
      </trkpt>
      <trkpt lat="44.73509" lon="0.82031">
        <ele>127</ele>
        <time>2009-06-18T16:43:36Z</time>
      </trkpt>
      <trkpt lat="44.73497" lon="0.82027">
        <ele>127</ele>
        <time>2009-06-18T16:43:36Z</time>
      </trkpt>
      <trkpt lat="44.73488" lon="0.82028">
        <ele>126</ele>
        <time>2009-06-18T16:43:36Z</time>
      </trkpt>
      <trkpt lat="44.73477" lon="0.82022">
        <ele>126</ele>
        <time>2009-06-18T16:43:36Z</time>
      </trkpt>
      <trkpt lat="44.73472" lon="0.8202">
        <ele>126</ele>
        <time>2009-06-18T16:43:36Z</time>
      </trkpt>
      <trkpt lat="44.73466" lon="0.82016">
        <ele>126</ele>
        <time>2009-06-18T16:43:36Z</time>
      </trkpt>
      <trkpt lat="44.73456" lon="0.82013">
        <ele>126</ele>
        <time>2009-06-18T16:43:36Z</time>
      </trkpt>
      <trkpt lat="44.73446" lon="0.82009">
        <ele>125</ele>
        <time>2009-06-18T16:43:36Z</time>
      </trkpt>
      <trkpt lat="44.73429" lon="0.82001">
        <ele>125</ele>
        <time>2009-06-18T16:43:36Z</time>
      </trkpt>
      <trkpt lat="44.73418" lon="0.81996">
        <ele>124</ele>
        <time>2009-06-18T16:43:36Z</time>
      </trkpt>
      <trkpt lat="44.73401" lon="0.81984">
        <ele>123</ele>
        <time>2009-06-18T16:43:36Z</time>
      </trkpt>
      <trkpt lat="44.73378" lon="0.81972">
        <ele>120</ele>
        <time>2009-06-18T16:43:36Z</time>
      </trkpt>
      <trkpt lat="44.73485" lon="0.8172">
        <ele>155</ele>
        <time>2009-06-18T16:43:36Z</time>
      </trkpt>
      <trkpt lat="44.7351" lon="0.81698">
        <ele>154</ele>
        <time>2009-01-20T13:30:58Z</time>
      </trkpt>
      <trkpt lat="44.73528" lon="0.81678">
        <ele>156</ele>
        <time>2009-01-20T13:31:01Z</time>
      </trkpt>
      <trkpt lat="44.73543" lon="0.81658">
        <ele>158</ele>
        <time>2009-01-20T13:31:04Z</time>
      </trkpt>
      <trkpt lat="44.73558" lon="0.81638">
        <ele>160</ele>
        <time>2009-01-20T13:31:07Z</time>
      </trkpt>
      <trkpt lat="44.73575" lon="0.81628">
        <ele>160</ele>
        <time>2009-01-20T13:31:10Z</time>
      </trkpt>
      <trkpt lat="44.736" lon="0.81633">
        <ele>161</ele>
        <time>2009-01-20T13:31:14Z</time>
      </trkpt>
      <trkpt lat="44.7362" lon="0.81638">
        <ele>161</ele>
        <time>2009-01-20T13:31:17Z</time>
      </trkpt>
      <trkpt lat="44.7364" lon="0.8164">
        <ele>161</ele>
        <time>2009-01-20T13:31:26Z</time>
      </trkpt>
      <trkpt lat="44.7365" lon="0.8161">
        <ele>162</ele>
        <time>2009-01-20T13:31:33Z</time>
      </trkpt>
      <trkpt lat="44.73655" lon="0.81585">
        <ele>163</ele>
        <time>2009-01-20T13:31:36Z</time>
      </trkpt>
      <trkpt lat="44.7366" lon="0.81555">
        <ele>164</ele>
        <time>2009-01-20T13:31:39Z</time>
      </trkpt>
      <trkpt lat="44.73663" lon="0.81523">
        <ele>166</ele>
        <time>2009-01-20T13:31:42Z</time>
      </trkpt>
      <trkpt lat="44.73668" lon="0.81493">
        <ele>167</ele>
        <time>2009-01-20T13:31:45Z</time>
      </trkpt>
      <trkpt lat="44.7367" lon="0.81465">
        <ele>170</ele>
        <time>2009-01-20T13:31:48Z</time>
      </trkpt>
      <trkpt lat="44.73673" lon="0.81433">
        <ele>172</ele>
        <time>2009-01-20T13:31:51Z</time>
      </trkpt>
      <trkpt lat="44.73675" lon="0.81398">
        <ele>172</ele>
        <time>2009-01-20T13:31:54Z</time>
      </trkpt>
      <trkpt lat="44.73678" lon="0.81365">
        <ele>173</ele>
        <time>2009-01-20T13:31:57Z</time>
      </trkpt>
      <trkpt lat="44.7367" lon="0.81338">
        <ele>175</ele>
        <time>2009-01-20T13:32:04Z</time>
      </trkpt>
      <trkpt lat="44.73658" lon="0.81313">
        <ele>174</ele>
        <time>2009-01-20T13:32:09Z</time>
      </trkpt>
      <trkpt lat="44.73645" lon="0.81283">
        <ele>174</ele>
        <time>2009-01-20T13:32:12Z</time>
      </trkpt>
      <trkpt lat="44.73633" lon="0.81245">
        <ele>173</ele>
        <time>2009-01-20T13:32:15Z</time>
      </trkpt>
      <trkpt lat="44.73625" lon="0.81218">
        <ele>172</ele>
        <time>2009-01-20T13:32:17Z</time>
      </trkpt>
      <trkpt lat="44.73618" lon="0.8119">
        <ele>172</ele>
        <time>2009-01-20T13:32:19Z</time>
      </trkpt>
      <trkpt lat="44.7361" lon="0.81163">
        <ele>171</ele>
        <time>2009-01-20T13:32:21Z</time>
      </trkpt>
      <trkpt lat="44.73598" lon="0.81123">
        <ele>171</ele>
        <time>2009-01-20T13:32:24Z</time>
      </trkpt>
      <trkpt lat="44.73585" lon="0.8108">
        <ele>170</ele>
        <time>2009-01-20T13:32:27Z</time>
      </trkpt>
      <trkpt lat="44.73578" lon="0.81055">
        <ele>170</ele>
        <time>2009-01-20T13:32:29Z</time>
      </trkpt>
      <trkpt lat="44.7357" lon="0.81028">
        <ele>170</ele>
        <time>2009-01-20T13:32:31Z</time>
      </trkpt>
      <trkpt lat="44.7356" lon="0.81003">
        <ele>170</ele>
        <time>2009-01-20T13:32:33Z</time>
      </trkpt>
      <trkpt lat="44.7355" lon="0.80965">
        <ele>171</ele>
        <time>2009-01-20T13:32:36Z</time>
      </trkpt>
      <trkpt lat="44.73543" lon="0.8094">
        <ele>171</ele>
        <time>2009-01-20T13:32:39Z</time>
      </trkpt>
      <trkpt lat="44.7353" lon="0.809">
        <ele>171</ele>
        <time>2009-01-20T13:32:41Z</time>
      </trkpt>
      <trkpt lat="44.7352" lon="0.8086">
        <ele>171</ele>
        <time>2009-01-20T13:32:44Z</time>
      </trkpt>
      <trkpt lat="44.7351" lon="0.80835">
        <ele>171</ele>
        <time>2009-01-20T13:32:46Z</time>
      </trkpt>
      <trkpt lat="44.73503" lon="0.80808">
        <ele>171</ele>
        <time>2009-01-20T13:32:48Z</time>
      </trkpt>
      <trkpt lat="44.73495" lon="0.80783">
        <ele>172</ele>
        <time>2009-01-20T13:32:50Z</time>
      </trkpt>
      <trkpt lat="44.73488" lon="0.80758">
        <ele>173</ele>
        <time>2009-01-20T13:32:52Z</time>
      </trkpt>
      <trkpt lat="44.74161" lon="0.79908">
        <ele>173</ele>
        <time>2009-06-18T16:43:36Z</time>
      </trkpt>
      <trkpt lat="44.74219" lon="0.79813">
        <ele>173</ele>
        <time>2009-01-20T13:36:53Z</time>
      </trkpt>
    </trkseg>
  </trk>
</gpx>